Terminal Aerodrome Forecast
Issued by NWS

Home | Current Version | Previous Version | Text Only | Print | Product List | Glossary On
Versions: 1 2 3 4 5 6 7 8 9 10 11 12 13 14
000
FTUS43 KFGF 222338
TAFDVL
TAF
KDVL 222338Z 2300/2324 22015KT P6SM VCSH BKN050
     FM230400 25019G27KT P6SM BKN100
     FM231100 30019G27KT P6SM BKN050
     FM231300 31022G31KT P6SM OVC030
     FM231700 32023G32KT P6SM SCT150=

USA.gov is the U.S. government's official web portal to all federal, state and local government web resources and services.